Time;durP1;ratioP1;P1;durP2;ratioP2;P2;SDS_P1;SDS_P2;PMS_P1;PMS_P2;Temp;Humidity;BMP_temperature;BMP_pressure;BME280_temperature;BME280_humidity;BME280_pressure;Samples;Min_cycle;Max_cycle;Signal;HPM_P1;HPM_P2
2021/04/27 00:02:05;;;;;;;14.45;7.87;;;;;;;5.37;52.09;96524.51;1749423;81;21167;-59
2021/04/27 00:04:33;;;;;;;13.55;8.15;;;;;;;5.43;51.79;96522.91;1744027;81;21946;-58
2021/04/27 00:07:01;;;;;;;13.13;7.72;;;;;;;5.43;51.59;96519.05;1745237;80;21596;-56
2021/04/27 00:09:29;;;;;;;11.53;7.37;;;;;;;5.45;51.62;96525.41;1741500;81;21163;-57
2021/04/27 00:11:59;;;;;;;11.78;7.37;;;;;;;5.45;51.54;96522.38;1751550;81;22302;-57
2021/04/27 00:14:27;;;;;;;10.25;6.55;;;;;;;5.47;51.47;96522.30;1754122;81;21578;-57
2021/04/27 00:16:55;;;;;;;13.90;7.60;;;;;;;5.48;51.22;96522.22;1757069;80;21600;-57
2021/04/27 00:19:22;;;;;;;10.90;7.25;;;;;;;5.51;51.16;96518.67;1752810;81;22077;-56
2021/04/27 00:21:50;;;;;;;11.05;6.97;;;;;;;5.54;51.48;96510.77;1758428;80;21099;-57
2021/04/27 00:24:18;;;;;;;11.50;7.20;;;;;;;5.56;51.28;96507.69;1749560;81;22182;-58
2021/04/27 00:26:45;;;;;;;10.70;7.28;;;;;;;5.54;51.36;96506.91;1753093;81;21167;-59
2021/04/27 00:29:13;;;;;;;12.35;7.65;;;;;;;5.54;51.41;96513.34;1756869;81;21131;-59
2021/04/27 00:31:42;;;;;;;12.13;7.12;;;;;;;5.52;51.61;96513.41;1756483;81;21114;-58
2021/04/27 00:34:09;;;;;;;11.35;7.60;;;;;;;5.42;51.61;96512.70;1756912;81;21655;-58
2021/04/27 00:36:38;;;;;;;10.45;6.70;;;;;;;5.29;52.27;96508.16;1755763;81;22290;-57
2021/04/27 00:39:06;;;;;;;9.80;6.78;;;;;;;5.27;52.24;96505.31;1729368;81;21153;-56
2021/04/27 00:41:34;;;;;;;9.70;7.00;;;;;;;5.20;51.82;96504.79;1739351;82;21101;-58
2021/04/27 00:44:03;;;;;;;11.23;7.00;;;;;;;5.13;52.17;96508.13;1738416;82;21155;-58
2021/04/27 00:46:31;;;;;;;12.85;6.55;;;;;;;5.08;52.44;96510.53;1734272;81;21530;-59
2021/04/27 00:48:59;;;;;;;14.00;6.37;;;;;;;5.04;52.61;96505.17;1724021;82;21480;-58
2021/04/27 00:51:28;;;;;;;11.93;6.45;;;;;;;5.01;52.58;96502.29;1731574;81;21147;-59
2021/04/27 00:53:56;;;;;;;12.07;6.58;;;;;;;5.00;52.64;96512.65;1744186;80;21104;-58
2021/04/27 00:56:25;;;;;;;12.93;6.80;;;;;;;5.00;52.67;96512.65;1705817;83;21205;-58
2021/04/27 00:58:53;;;;;;;7.85;5.87;;;;;;;4.92;52.22;96513.88;1753348;80;21071;-58
2021/04/27 01:01:22;;;;;;;10.43;6.42;;;;;;;4.74;52.37;96514.78;1738102;82;21378;-58
2021/04/27 01:03:50;;;;;;;9.20;6.03;;;;;;;4.47;52.87;96512.59;1759589;81;21068;-58
2021/04/27 01:06:18;;;;;;;11.10;6.87;;;;;;;4.31;53.61;96510.37;1724928;81;21156;-58
2021/04/27 01:09:23;;;;;;;11.63;6.53;;;;;;;4.24;54.00;96502.98;1723026;82;21120;-58
2021/04/27 01:12:09;;;;;;;11.10;6.47;;;;;;;4.17;54.25;96498.19;1729338;82;21056;-57
2021/04/27 01:14:40;;;;;;;13.18;6.30;;;;;;;4.03;54.97;96496.27;1758403;81;21217;-57
2021/04/27 01:17:15;;;;;;;11.38;6.45;;;;;;;3.94;55.56;96497.50;1758623;80;21162;-57
2021/04/27 01:20:07;;;;;;;9.23;6.35;;;;;;;3.93;56.00;96499.70;1740191;80;21543;-57
2021/04/27 01:23:14;;;;;;;12.33;7.05;;;;;;;3.95;56.19;96504.31;1755886;81;21068;-57
2021/04/27 01:26:05;;;;;;;8.33;6.03;;;;;;;3.98;56.68;96489.20;1753083;81;21052;-57
2021/04/27 01:28:36;;;;;;;7.90;5.47;;;;;;;3.98;56.68;96489.20;1750952;81;21391;-57
2021/04/27 01:31:03;;;;;;;10.13;6.45;;;;;;;4.04;56.95;96485.90;1736905;81;21107;-57
2021/04/27 01:33:32;;;;;;;9.03;6.43;;;;;;;4.10;56.80;96483.52;1755294;81;21072;-57
2021/04/27 01:36:02;;;;;;;9.83;6.23;;;;;;;4.10;56.80;96483.52;1741109;81;21579;-57
2021/04/27 01:38:31;;;;;;;9.60;6.25;;;;;;;4.10;56.80;96482.23;1739900;81;21070;-57
2021/04/27 01:40:59;;;;;;;7.87;5.97;;;;;;;4.11;56.89;96485.20;1713158;81;21282;-57
2021/04/27 01:43:27;;;;;;;9.73;6.08;;;;;;;4.11;57.10;96482.63;1753323;81;21087;-57
2021/04/27 01:46:05;;;;;;;9.88;5.90;;;;;;;4.12;57.12;96488.59;1728618;83;21194;-57
2021/04/27 01:48:34;;;;;;;11.43;6.03;;;;;;;4.11;57.27;96486.91;1697630;84;21082;-57
2021/04/27 01:51:04;;;;;;;11.30;5.85;;;;;;;4.08;57.05;96486.61;1712173;82;21071;-57
2021/04/27 01:53:50;;;;;;;9.47;5.57;;;;;;;4.09;57.02;96484.88;1747755;81;21214;-57
2021/04/27 01:56:20;;;;;;;10.85;5.20;;;;;;;3.98;57.07;96473.37;1766604;81;21127;-57
2021/04/27 01:58:49;;;;;;;8.78;5.75;;;;;;;3.98;57.07;96473.37;1751713;81;21136;-58
2021/04/27 02:01:19;;;;;;;8.70;5.75;;;;;;;3.94;57.16;96471.01;1753622;81;21107;-57
2021/04/27 02:03:47;;;;;;;8.35;5.37;;;;;;;3.92;57.44;96477.49;1767357;81;21105;-57
2021/04/27 02:06:33;;;;;;;10.50;5.87;;;;;;;3.93;57.56;96474.47;1766608;81;23728;-57
2021/04/27 02:09:08;;;;;;;9.30;5.90;;;;;;;3.88;57.49;96464.41;1726824;82;27664;-57
2021/04/27 02:11:43;;;;;;;8.55;5.70;;;;;;;3.81;57.62;96457.89;1740904;81;21587;-57
2021/04/27 02:14:13;;;;;;;8.60;6.10;;;;;;;3.78;57.99;96456.32;1729800;80;21094;-56
2021/04/27 02:16:59;;;;;;;9.35;6.00;;;;;;;3.75;58.27;96456.45;1727988;82;21081;-57
2021/04/27 02:19:29;;;;;;;11.97;6.03;;;;;;;3.70;58.49;96454.55;1729046;82;21218;-57
2021/04/27 02:22:16;;;;;;;17.10;6.83;;;;;;;3.58;58.80;96458.94;1750312;80;21599;-57
2021/04/27 02:24:57;;;;;;;10.40;6.57;;;;;;;3.47;59.44;96465.38;1872722;76;22316;-57
2021/04/27 02:27:25;;;;;;;;;;;;;;;3.41;59.83;96466.93;1841988;77;21468;-57
2021/04/27 02:29:54;;;;;;;8.03;5.42;;;;;;;3.47;60.08;96464.53;1818064;77;21824;-57
2021/04/27 02:32:23;;;;;;;10.03;5.90;;;;;;;3.49;60.05;96461.47;1808656;78;21063;-57
2021/04/27 02:34:51;;;;;;;9.03;5.92;;;;;;;3.53;60.01;96460.42;1836037;78;21015;-58
2021/04/27 02:37:19;;;;;;;11.10;5.78;;;;;;;3.56;59.88;96460.75;1826278;78;21154;-57
2021/04/27 02:39:49;;;;;;;7.65;5.62;;;;;;;3.53;60.03;96457.85;1808397;78;21162;-57
2021/04/27 02:42:18;;;;;;;11.85;5.90;;;;;;;3.55;59.97;96461.17;1808668;79;21366;-57
2021/04/27 02:44:52;;;;;;;9.30;5.80;;;;;;;3.56;59.89;96457.72;1809117;78;21598;-57
2021/04/27 02:47:22;;;;;;;11.18;6.20;;;;;;;3.51;59.81;96455.81;1816390;78;21531;-57
2021/04/27 02:49:50;;;;;;;7.65;5.40;;;;;;;3.49;59.92;96452.49;1809625;76;21119;-58
2021/04/27 02:52:20;;;;;;;8.38;5.55;;;;;;;3.55;59.94;96457.33;1808539;78;21083;-57
2021/04/27 02:54:59;;;;;;;9.13;6.03;;;;;;;3.60;59.76;96451.56;1832786;78;21605;-57
2021/04/27 02:57:28;;;;;;;10.80;5.67;;;;;;;3.65;59.64;96457.75;1828726;78;21594;-57
2021/04/27 02:59:56;;;;;;;12.07;5.87;;;;;;;3.68;59.56;96454.62;1826819;78;21499;-57
2021/04/27 03:02:24;;;;;;;11.80;5.80;;;;;;;3.77;59.57;96449.51;1810620;78;21115;-57
2021/04/27 03:04:53;;;;;;;10.05;5.70;;;;;;;3.77;59.57;96449.51;1808675;78;21054;-57
2021/04/27 03:07:36;;;;;;;10.32;5.65;;;;;;;3.81;59.35;96453.59;1809008;78;21214;-58
2021/04/27 03:10:07;;;;;;;12.35;5.72;;;;;;;3.75;59.33;96459.02;1799333;78;21095;-58
2021/04/27 03:12:35;;;;;;;10.28;5.60;;;;;;;3.73;59.34;96461.27;1793256;79;21110;-58
2021/04/27 03:15:07;;;;;;;11.18;6.03;;;;;;;3.69;59.61;96457.55;1793881;78;21105;-57
2021/04/27 03:17:38;;;;;;;10.13;5.55;;;;;;;3.65;59.30;96453.90;1797794;79;21066;-58
2021/04/27 03:20:09;;;;;;;10.53;6.40;;;;;;;3.54;59.64;96458.25;1799798;79;21425;-57
2021/04/27 03:22:42;;;;;;;12.03;5.67;;;;;;;3.47;59.84;96462.81;1796025;79;21236;-57
2021/04/27 03:25:11;;;;;;;;;;;;;;;3.49;59.81;96466.60;1804646;78;21137;-57
2021/04/27 03:27:41;;;;;;;8.45;5.30;;;;;;;3.56;59.79;96464.13;1793777;79;20244;-57
2021/04/27 03:30:27;;;;;;;9.20;5.40;;;;;;;3.71;59.53;96461.79;1798831;78;21153;-58
2021/04/27 03:32:58;;;;;;;10.65;5.65;;;;;;;3.71;59.53;96461.79;1801745;78;21349;-58
2021/04/27 03:35:30;;;;;;;11.53;5.87;;;;;;;3.64;59.56;96459.49;1757688;79;21117;-58
2021/04/27 03:38:00;;;;;;;9.75;5.50;;;;;;;3.66;59.92;96456.86;1806638;79;21144;-57
2021/04/27 03:40:28;;;;;;;8.63;5.55;;;;;;;3.76;60.01;96456.81;1804812;78;21467;-58
2021/04/27 03:42:57;;;;;;;11.25;5.75;;;;;;;3.93;59.87;96462.91;1812709;79;21050;-57
2021/04/27 03:45:35;;;;;;;17.32;9.75;;;;;;;3.93;59.87;96462.91;1813300;79;21422;-58
2021/04/27 03:48:14;;;;;;;19.12;8.48;;;;;;;4.05;59.50;96469.60;1782476;79;21093;-58
2021/04/27 03:50:44;;;;;;;10.70;7.17;;;;;;;4.14;59.09;96476.03;1782228;79;21075;-58
2021/04/27 03:53:14;;;;;;;10.98;6.87;;;;;;;4.21;58.94;96476.15;1809276;78;21490;-57
2021/04/27 03:55:44;;;;;;;10.15;6.15;;;;;;;4.28;58.85;96475.87;1796999;79;21543;-57
2021/04/27 03:58:12;;;;;;;;;;;;;;;4.28;58.85;96475.87;1728581;79;22185;-58
2021/04/27 04:00:39;;;;;;;9.60;6.15;;;;;;;4.36;58.88;96468.63;1813092;79;20496;-59
2021/04/27 04:03:09;;;;;;;10.93;5.97;;;;;;;4.45;58.81;96473.77;1812696;79;21198;-59
2021/04/27 04:05:37;;;;;;;11.40;6.65;;;;;;;4.55;58.06;96469.38;1813535;79;21055;-57
2021/04/27 04:08:06;;;;;;;10.45;6.60;;;;;;;4.55;58.06;96469.38;1804456;77;21205;-57
2021/04/27 04:10:45;;;;;;;10.82;6.50;;;;;;;4.61;57.96;96469.09;1812472;78;21358;-57
2021/04/27 04:13:13;;;;;;;11.50;6.77;;;;;;;4.66;57.91;96469.34;1775167;79;21175;-57
2021/04/27 04:15:41;;;;;;;9.38;6.37;;;;;;;4.73;58.05;96468.12;1762245;80;21124;-58
2021/04/27 04:18:10;;;;;;;10.40;5.97;;;;;;;4.83;57.98;96473.64;1800694;78;21110;-57
2021/04/27 04:20:37;;;;;;;13.03;6.93;;;;;;;4.87;57.76;96473.42;1783003;79;21480;-57
2021/04/27 04:23:27;;;;;;;17.13;8.23;;;;;;;5.04;57.82;96480.28;1872182;75;22766;-58
2021/04/27 04:25:56;;;;;;;17.42;9.08;;;;;;;5.06;57.77;96487.46;1837044;78;20976;-57
2021/04/27 04:28:25;;;;;;;20.05;9.48;;;;;;;5.11;57.64;96483.38;1780846;78;21207;-57
2021/04/27 04:30:53;;;;;;;16.77;8.30;;;;;;;5.17;57.62;96486.93;1834568;78;21480;-58
2021/04/27 04:33:39;;;;;;;13.80;7.95;;;;;;;5.22;57.28;96486.24;1841572;78;21103;-57
2021/04/27 04:36:25;;;;;;;16.97;8.05;;;;;;;5.30;57.03;96487.97;1824877;78;21071;-57
2021/04/27 04:39:11;;;;;;;14.25;7.92;;;;;;;5.30;56.64;96485.39;1814009;76;21059;-59
2021/04/27 04:41:47;;;;;;;14.65;8.05;;;;;;;5.30;55.81;96489.72;1749407;81;22313;-58
2021/04/27 04:44:18;;;;;;;11.45;7.55;;;;;;;5.25;55.40;96492.52;1733764;80;21185;-56
2021/04/27 04:47:05;;;;;;;10.28;7.60;;;;;;;5.23;55.25;96496.06;1757927;81;21537;-56
2021/04/27 04:49:38;;;;;;;13.03;7.12;;;;;;;5.22;55.47;96500.85;1773600;80;21544;-57
2021/04/27 04:52:11;;;;;;;13.13;7.60;;;;;;;5.24;55.57;96502.42;1723153;81;21549;-56
2021/04/27 04:54:46;;;;;;;12.43;7.22;;;;;;;5.32;55.64;96506.72;1771184;80;21388;-57
2021/04/27 04:57:18;;;;;;;11.28;6.72;;;;;;;5.42;55.27;96506.27;1705441;80;21121;-58
2021/04/27 04:59:46;;;;;;;11.10;6.78;;;;;;;5.51;55.00;96506.62;1772145;80;21116;-58
2021/04/27 05:02:14;;;;;;;9.15;6.50;;;;;;;5.56;54.68;96500.39;1778536;80;21628;-59
2021/04/27 05:05:00;;;;;;;9.73;6.05;;;;;;;5.55;54.34;96503.90;1779642;80;21097;-57
2021/04/27 05:07:57;;;;;;;8.93;6.10;;;;;;;5.59;54.30;96502.37;1763219;80;21216;-58
2021/04/27 05:10:27;;;;;;;8.33;6.23;;;;;;;5.73;54.23;96503.40;1798814;79;23620;-57
2021/04/27 05:13:12;;;;;;;73.78;40.17;;;;;;;5.85;54.05;96507.88;1725269;81;21125;-56
2021/04/27 05:15:40;;;;;;;25.20;13.68;;;;;;;6.07;53.58;96512.77;1742548;82;21219;-56
2021/04/27 05:18:08;;;;;;;11.38;8.28;;;;;;;6.20;53.94;96504.75;1762181;80;21010;-56
2021/04/27 05:20:36;;;;;;;14.70;8.93;;;;;;;6.30;53.06;96502.94;1737056;81;21066;-56
2021/04/27 05:23:04;;;;;;;10.13;7.30;;;;;;;6.30;52.85;96501.66;1736199;81;21159;-56
2021/04/27 05:25:34;;;;;;;11.43;7.53;;;;;;;6.25;52.89;96505.80;1758510;81;21486;-56
2021/04/27 05:28:04;;;;;;;9.48;7.05;;;;;;;6.20;53.05;96499.59;1764194;81;21207;-57
2021/04/27 05:30:32;;;;;;;;;;;;;;;6.16;53.06;96498.09;1760252;81;21521;-56
2021/04/27 05:33:00;;;;;;;10.13;6.92;;;;;;;6.15;52.76;96501.59;1742603;81;20236;-56
2021/04/27 05:35:28;;;;;;;8.63;6.80;;;;;;;6.11;52.64;96497.97;1735936;82;21552;-56
2021/04/27 05:37:56;;;;;;;14.30;7.03;;;;;;;6.04;52.87;96499.59;1748813;81;21069;-56
2021/04/27 05:40:25;;;;;;;12.75;6.78;;;;;;;6.03;52.99;96504.35;1737549;81;21388;-56
2021/04/27 05:42:53;;;;;;;10.43;6.53;;;;;;;6.07;52.87;96502.47;1745397;81;21156;-56
2021/04/27 05:45:21;;;;;;;12.30;8.28;;;;;;;6.11;53.05;96504.42;1752408;80;21140;-58
2021/04/27 05:47:50;;;;;;;191.00;99.47;;;;;;;6.15;53.08;96500.74;1735119;81;21164;-58
2021/04/27 05:50:18;;;;;;;58.53;24.37;;;;;;;6.21;53.17;96502.99;1754784;81;21192;-56
2021/04/27 05:52:46;;;;;;;17.60;9.48;;;;;;;6.29;53.02;96511.14;1756532;81;21386;-57
2021/04/27 05:55:14;;;;;;;18.73;8.57;;;;;;;6.33;52.56;96508.78;1772242;80;21093;-56
2021/04/27 05:57:42;;;;;;;19.60;8.68;;;;;;;6.37;52.38;96510.26;1766281;81;21613;-55
2021/04/27 06:00:14;;;;;;;117.33;67.32;;;;;;;6.34;52.26;96513.00;1737780;81;21182;-56
2021/04/27 06:02:42;;;;;;;131.90;67.82;;;;;;;6.34;52.71;96515.58;1736164;81;21192;-58
2021/04/27 06:05:11;;;;;;;54.23;20.48;;;;;;;6.42;52.41;96521.14;1770560;80;21278;-56
2021/04/27 06:07:39;;;;;;;22.65;10.93;;;;;;;6.44;52.09;96518.02;1752121;81;21199;-57
2021/04/27 06:10:09;;;;;;;19.00;7.58;;;;;;;6.48;51.91;96514.84;1729460;81;21189;-56
2021/04/27 06:12:37;;;;;;;16.55;7.90;;;;;;;6.44;51.92;96505.13;1717252;81;21141;-57
2021/04/27 06:15:08;;;;;;;12.70;6.67;;;;;;;6.47;52.38;96505.90;1733643;81;21078;-62
2021/04/27 06:17:36;;;;;;;14.25;7.92;;;;;;;6.52;52.30;96502.60;1734861;81;21476;-55
2021/04/27 06:20:06;;;;;;;12.00;7.15;;;;;;;6.61;52.30;96504.65;1740953;81;21548;-55
2021/04/27 06:22:35;;;;;;;9.08;6.65;;;;;;;6.74;52.15;96512.53;1731530;81;21072;-55
2021/04/27 06:25:05;;;;;;;10.60;6.72;;;;;;;6.85;51.92;96511.47;1739448;81;21567;-55
2021/04/27 06:27:33;;;;;;;8.98;6.33;;;;;;;6.87;52.09;96513.49;1749963;81;21087;-56
2021/04/27 06:30:01;;;;;;;10.70;6.67;;;;;;;6.86;51.89;96511.85;1746044;81;21225;-55
2021/04/27 06:32:29;;;;;;;12.95;7.12;;;;;;;6.83;51.95;96511.20;1749247;81;21176;-55
2021/04/27 06:34:57;;;;;;;10.55;6.95;;;;;;;6.78;52.50;96511.45;1724860;83;21620;-55
2021/04/27 06:37:26;;;;;;;10.58;7.50;;;;;;;6.72;52.67;96508.75;1730191;81;21204;-55
2021/04/27 06:39:53;;;;;;;11.77;7.87;;;;;;;6.67;52.83;96521.07;1755612;81;21112;-55
2021/04/27 06:42:21;;;;;;;11.43;7.67;;;;;;;6.61;52.93;96517.10;1755392;81;21211;-55
2021/04/27 06:44:49;;;;;;;9.83;6.75;;;;;;;6.53;53.32;96518.42;1755435;81;21180;-56
2021/04/27 06:47:17;;;;;;;10.48;6.08;;;;;;;6.44;53.89;96524.92;1755322;81;21474;-55
2021/04/27 06:49:45;;;;;;;9.83;5.00;;;;;;;6.34;54.26;96523.78;1755646;81;21053;-55
2021/04/27 06:52:12;;;;;;;14.13;5.22;;;;;;;6.23;54.60;96520.48;1755414;81;21357;-55
2021/04/27 06:54:40;;;;;;;6.53;5.08;;;;;;;6.21;55.00;96523.14;1755380;81;21217;-55
2021/04/27 06:57:08;;;;;;;6.58;5.03;;;;;;;6.28;55.09;96522.81;1755358;81;21092;-55
2021/04/27 06:59:37;;;;;;;7.25;4.78;;;;;;;6.29;55.61;96524.48;1726709;81;21063;-56
2021/04/27 07:02:05;;;;;;;5.53;4.57;;;;;;;6.30;55.95;96530.00;1755641;81;21244;-55
2021/04/27 07:04:36;;;;;;;7.03;4.30;;;;;;;6.35;56.10;96526.70;1754484;81;21073;-55
2021/04/27 07:07:04;;;;;;;6.17;4.90;;;;;;;6.39;55.69;96534.20;1755358;81;21369;-55
2021/04/27 07:09:32;;;;;;;8.73;5.58;;;;;;;6.38;55.45;96525.26;1730743;80;21152;-56
2021/04/27 07:11:59;;;;;;;10.75;5.92;;;;;;;6.33;56.00;96531.13;1722551;82;21623;-55
2021/04/27 07:14:27;;;;;;;12.75;6.33;;;;;;;6.26;56.22;96530.63;1687101;85;21208;-55
2021/04/27 07:16:55;;;;;;;10.55;6.42;;;;;;;6.21;56.52;96538.59;1738245;82;21085;-55
2021/04/27 07:19:23;;;;;;;10.98;6.50;;;;;;;6.15;56.76;96535.52;1739397;82;21395;-55
2021/04/27 07:21:52;;;;;;;9.83;6.10;;;;;;;6.10;56.65;96533.66;1737938;82;21120;-56
2021/04/27 07:24:20;;;;;;;12.58;5.97;;;;;;;6.09;56.64;96531.55;1738777;82;21188;-55
2021/04/27 07:26:49;;;;;;;13.25;5.50;;;;;;;6.11;56.24;96533.58;1738545;82;21065;-55
2021/04/27 07:29:16;;;;;;;;;;;;;;;6.15;56.38;96531.22;1749623;82;21070;-55
2021/04/27 07:31:44;;;;;;;14.58;6.10;;;;;;;6.19;55.43;96531.88;1747908;81;21195;-57
2021/04/27 07:34:12;;;;;;;10.72;5.42;;;;;;;6.17;55.16;96544.84;1760605;81;21131;-55
2021/04/27 07:36:40;;;;;;;13.15;4.87;;;;;;;6.20;54.64;96538.68;1721023;82;21169;-56
2021/04/27 07:39:09;;;;;;;18.90;5.42;;;;;;;6.26;54.62;96544.80;1724603;82;21052;-55
2021/04/27 07:41:37;;;;;;;20.95;5.45;;;;;;;6.30;54.73;96541.59;1735354;82;21125;-55
2021/04/27 07:44:06;;;;;;;17.48;5.40;;;;;;;6.20;54.67;96545.97;1735355;82;22298;-55
2021/04/27 07:46:34;;;;;;;17.10;5.35;;;;;;;6.20;54.89;96544.69;1735100;82;21541;-55
2021/04/27 07:49:03;;;;;;;8.73;5.10;;;;;;;6.17;55.12;96546.60;1735855;82;21231;-55
2021/04/27 07:51:32;;;;;;;11.50;4.53;;;;;;;6.18;55.45;96541.80;1730988;83;21192;-55
2021/04/27 07:54:00;;;;;;;12.33;5.13;;;;;;;6.20;54.49;96549.84;1731272;82;21116;-55
2021/04/27 07:56:31;;;;;;;15.80;5.15;;;;;;;6.32;54.44;96549.63;1731019;83;21399;-55
2021/04/27 07:58:59;;;;;;;12.25;4.90;;;;;;;6.45;54.56;96553.66;1731068;83;21070;-55
2021/04/27 08:01:28;;;;;;;15.03;4.97;;;;;;;6.54;54.55;96557.47;1733494;82;21112;-55
2021/04/27 08:03:56;;;;;;;15.68;4.58;;;;;;;6.56;53.80;96559.50;1739090;82;21060;-55
2021/04/27 08:06:24;;;;;;;17.15;5.97;;;;;;;6.56;53.96;96555.64;1738809;82;21549;-55
2021/04/27 08:08:55;;;;;;;10.25;4.55;;;;;;;6.69;53.21;96557.91;1737992;82;21385;-55
2021/04/27 08:11:23;;;;;;;12.40;4.40;;;;;;;6.85;53.11;96557.89;1738693;81;21164;-55
2021/04/27 08:13:51;;;;;;;9.43;4.47;;;;;;;7.23;52.57;96554.88;1738664;82;21568;-55
2021/04/27 08:16:18;;;;;;;14.85;4.75;;;;;;;7.77;51.07;96548.33;1745295;82;21062;-56
2021/04/27 08:18:47;;;;;;;11.25;3.95;;;;;;;8.23;48.41;96556.69;1717141;83;21485;-54
2021/04/27 08:21:15;;;;;;;12.45;3.65;;;;;;;8.25;46.06;96552.72;1737957;81;21352;-54
2021/04/27 08:23:43;;;;;;;13.47;4.80;;;;;;;7.86;46.58;96550.34;1731227;82;21139;-55
2021/04/27 08:26:13;;;;;;;6.87;3.33;;;;;;;7.97;46.59;96556.16;1722163;83;21576;-54
2021/04/27 08:28:41;;;;;;;10.40;3.72;;;;;;;8.19;45.18;96559.55;1738539;82;21144;-54
2021/04/27 08:31:10;;;;;;;9.28;3.87;;;;;;;8.26;45.68;96562.14;1717192;82;21088;-54
2021/04/27 08:33:37;;;;;;;;;;;;;;;8.54;45.14;96557.88;1689788;85;21404;-55
2021/04/27 08:36:08;;;;;;;7.78;3.40;;;;;;;8.79;42.94;96558.44;1702687;84;20228;-55
2021/04/27 08:38:36;;;;;;;10.98;4.10;;;;;;;8.52;43.91;96558.41;1702962;84;21074;-55
2021/04/27 08:41:04;;;;;;;8.50;4.17;;;;;;;8.15;44.62;96556.80;1703025;84;21085;-55
2021/04/27 08:43:32;;;;;;;12.58;4.03;;;;;;;8.29;44.90;96555.02;1702782;84;21120;-56
2021/04/27 08:45:59;;;;;;;15.45;3.95;;;;;;;8.27;44.63;96554.30;1730378;82;21389;-55
2021/04/27 08:48:27;;;;;;;19.45;4.22;;;;;;;8.09;44.97;96559.28;1721517;81;21104;-54
2021/04/27 08:50:56;;;;;;;16.42;4.60;;;;;;;7.71;45.99;96551.65;1742549;82;21471;-55
2021/04/27 08:53:23;;;;;;;7.53;3.37;;;;;;;7.75;46.61;96549.70;1742404;82;21129;-55
2021/04/27 08:55:51;;;;;;;8.53;3.77;;;;;;;8.11;45.69;96554.40;1742289;82;21121;-55
2021/04/27 08:58:19;;;;;;;5.33;3.72;;;;;;;8.18;45.64;96547.09;1742257;82;21382;-55
2021/04/27 09:00:47;;;;;;;12.23;3.72;;;;;;;8.53;45.79;96544.56;1716981;82;21097;-55
2021/04/27 09:03:16;;;;;;;7.92;4.10;;;;;;;8.96;44.69;96551.72;1700248;84;21474;-55
2021/04/27 09:05:44;;;;;;;12.07;4.12;;;;;;;9.36;43.80;96546.98;1693022;84;21085;-56
2021/04/27 09:08:14;;;;;;;11.38;4.67;;;;;;;9.55;42.29;96541.39;1697573;84;21528;-55
2021/04/27 09:10:45;;;;;;;9.15;4.83;;;;;;;9.58;42.53;96543.30;1714084;82;21272;-55
2021/04/27 09:13:18;;;;;;;8.28;4.60;;;;;;;9.69;42.00;96537.89;1729940;83;21091;-55
2021/04/27 09:15:50;;;;;;;10.72;4.55;;;;;;;9.78;41.57;96548.08;1735984;82;21090;-55
2021/04/27 09:18:34;;;;;;;11.83;4.67;;;;;;;9.44;41.57;96551.64;1742182;82;21487;-57
2021/04/27 09:21:09;;;;;;;8.85;4.55;;;;;;;9.14;41.56;96548.84;1742338;82;21589;-55
2021/04/27 09:23:40;;;;;;;13.22;5.25;;;;;;;8.88;42.47;96544.92;1742234;82;21389;-55
2021/04/27 09:26:18;;;;;;;12.20;4.22;;;;;;;9.06;43.08;96536.88;1742315;82;21498;-56
2021/04/27 09:28:48;;;;;;;13.20;4.47;;;;;;;9.35;42.34;96530.59;1742280;82;21067;-55
2021/04/27 09:31:31;;;;;;;8.65;4.17;;;;;;;9.39;42.50;96532.52;1742149;82;21079;-55
2021/04/27 09:34:21;;;;;;;11.18;4.58;;;;;;;9.39;42.48;96535.95;1742251;82;21078;-56
2021/04/27 09:36:52;;;;;;;9.60;4.72;;;;;;;9.30;41.96;96524.91;1746952;81;21370;-55
2021/04/27 09:39:37;;;;;;;6.22;3.67;;;;;;;9.34;42.24;96527.66;1742199;82;21180;-56
2021/04/27 09:42:19;;;;;;;10.05;4.65;;;;;;;9.37;41.35;96535.23;1742220;82;21090;-56
2021/04/27 09:44:50;;;;;;;9.95;4.67;;;;;;;9.13;41.82;96527.80;1741366;82;21097;-56
2021/04/27 09:47:30;;;;;;;8.23;4.60;;;;;;;9.03;42.15;96524.98;1742284;82;21062;-55
2021/04/27 09:50:08;;;;;;;7.42;5.17;;;;;;;8.94;42.39;96523.80;1742333;82;22289;-55
2021/04/27 09:52:43;;;;;;;9.25;4.70;;;;;;;9.10;42.38;96530.58;1741521;82;21093;-55
2021/04/27 09:57:55;;;;;;;9.05;3.72;;;;;;;9.78;42.46;96532.53;1873576;75;28160;-55
2021/04/27 10:00:39;;;;;;;9.35;4.12;;;;;;;9.91;42.38;96528.17;1840818;78;21071;-55
2021/04/27 10:03:10;;;;;;;9.43;4.30;;;;;;;9.83;42.41;96533.86;1841556;78;21217;-55
2021/04/27 10:05:45;;;;;;;8.95;4.40;;;;;;;9.69;43.40;96536.59;1841548;77;21011;-55
2021/04/27 10:08:13;;;;;;;6.10;3.92;;;;;;;9.79;43.50;96535.50;1819946;78;21058;-55
2021/04/27 10:10:42;;;;;;;6.80;4.22;;;;;;;9.86;43.24;96538.84;1808472;79;20944;-55
2021/04/27 10:13:12;;;;;;;8.07;4.00;;;;;;;9.78;42.75;96539.83;1759985;79;20926;-55
2021/04/27 10:15:40;;;;;;;5.67;3.80;;;;;;;9.65;43.00;96536.42;1752546;79;22541;-55
2021/04/27 10:18:09;;;;;;;6.20;4.25;;;;;;;9.47;42.87;96538.48;1752237;82;21057;-55
2021/04/27 10:20:38;;;;;;;7.28;3.85;;;;;;;9.22;43.46;96541.41;1752268;82;21517;-56
2021/04/27 10:23:08;;;;;;;9.13;4.42;;;;;;;9.01;43.77;96549.66;1752239;82;21596;-55
2021/04/27 10:25:38;;;;;;;7.00;4.10;;;;;;;8.78;44.35;96549.85;1723804;82;21576;-55
2021/04/27 10:28:08;;;;;;;9.30;4.85;;;;;;;8.58;44.88;96548.98;1752258;82;21432;-55
2021/04/27 10:30:44;;;;;;;15.20;5.75;;;;;;;8.38;46.09;96557.96;1752921;79;21171;-57
2021/04/27 10:33:20;;;;;;;10.80;5.10;;;;;;;8.16;47.14;96560.58;1752669;79;21505;-56
2021/04/27 10:36:10;;;;;;;12.80;4.47;;;;;;;7.93;48.05;96561.98;1752198;82;21168;-56
2021/04/27 10:38:56;;;;;;;10.28;4.83;;;;;;;7.71;48.77;96559.84;1752343;80;21647;-60
2021/04/27 10:41:47;;;;;;;10.38;4.10;;;;;;;7.59;49.02;96558.81;1752262;82;21359;-55
2021/04/27 10:44:16;;;;;;;12.30;4.60;;;;;;;7.58;49.41;96560.20;1748917;82;21556;-55
2021/04/27 10:46:45;;;;;;;10.50;4.87;;;;;;;7.59;49.64;96561.41;1802360;79;21059;-56
2021/04/27 10:49:22;;;;;;;;;;;;;;;7.66;49.83;96552.83;1811149;79;21587;-54
2021/04/27 10:51:52;;;;;;;10.95;5.15;;;;;;;7.76;50.35;96550.06;1808304;79;20217;-55
2021/04/27 10:54:25;;;;;;;;;;;;;;;7.90;49.76;96550.06;1810918;79;22270;-56
2021/04/27 10:57:10;;;;;;;7.62;4.62;;;;;;;8.14;49.43;96546.93;1807911;79;21835;-56
2021/04/27 10:59:58;;;;;;;8.08;4.90;;;;;;;8.47;48.72;96547.09;1808077;79;21070;-55
2021/04/27 11:02:30;;;;;;;9.60;5.12;;;;;;;8.87;48.28;96546.31;1799327;79;21138;-55
2021/04/27 11:05:16;;;;;;;8.53;5.83;;;;;;;9.37;47.38;96548.63;1808504;78;21098;-55
2021/04/27 11:07:46;;;;;;;8.73;5.03;;;;;;;9.81;46.81;96545.28;1807992;79;21428;-55
2021/04/27 11:10:19;;;;;;;;;;;;;;;10.18;45.51;96555.70;1810518;78;21063;-56
2021/04/27 11:12:57;;;;;;;10.28;4.45;;;;;;;10.36;44.74;96554.92;1805956;79;20217;-55
2021/04/27 11:15:29;;;;;;;9.33;5.03;;;;;;;10.29;44.36;96550.13;1802323;79;21138;-55
2021/04/27 11:18:15;;;;;;;9.68;4.70;;;;;;;10.17;44.34;96556.17;1790082;78;21548;-55
2021/04/27 11:20:56;;;;;;;8.83;4.75;;;;;;;10.09;44.09;96557.17;1791848;80;21132;-56
2021/04/27 11:23:51;;;;;;;10.78;5.60;;;;;;;9.90;44.12;96553.70;1791833;80;21571;-56
2021/04/27 11:26:40;;;;;;;13.32;7.90;;;;;;;9.65;44.61;96557.97;1793358;79;21123;-56
2021/04/27 11:29:17;;;;;;;9.65;6.65;;;;;;;9.49;45.07;96558.63;1799708;79;21107;-55
2021/04/27 11:32:12;;;;;;;9.25;5.42;;;;;;;9.33;45.84;96557.06;1793206;79;21139;-56
2021/04/27 11:35:02;;;;;;;10.18;5.42;;;;;;;9.28;45.78;96561.72;1791795;80;21184;-56
2021/04/27 11:37:56;;;;;;;11.53;5.75;;;;;;;9.27;45.80;96559.23;1791740;80;21064;-56
2021/04/27 11:40:37;;;;;;;12.55;5.67;;;;;;;9.26;46.01;96556.27;1791823;78;21052;-55
2021/04/27 11:43:11;;;;;;;14.03;6.33;;;;;;;9.40;45.80;96554.42;1791732;78;21167;-55
2021/04/27 11:45:44;;;;;;;12.60;6.65;;;;;;;9.60;45.67;96550.16;1798870;79;21055;-56
2021/04/27 11:48:17;;;;;;;10.80;5.67;;;;;;;9.75;45.33;96553.84;1807239;78;21385;-56
2021/04/27 11:50:45;;;;;;;8.25;5.40;;;;;;;9.83;44.77;96554.59;1807809;78;21606;-55
2021/04/27 11:53:18;;;;;;;8.73;4.75;;;;;;;9.89;44.90;96550.30;1807819;79;21047;-56
2021/04/27 11:55:50;;;;;;;9.30;5.05;;;;;;;10.07;44.01;96552.57;1807809;78;21233;-55
2021/04/27 11:58:32;;;;;;;11.88;5.17;;;;;;;10.20;44.19;96548.67;1807870;78;21131;-56
2021/04/27 12:01:01;;;;;;;9.30;5.33;;;;;;;10.32;43.52;96546.53;1798607;78;21121;-55
2021/04/27 12:03:40;;;;;;;11.57;5.50;;;;;;;10.44;43.22;96550.02;1794097;79;21229;-56
2021/04/27 12:06:17;;;;;;;8.88;5.55;;;;;;;10.55;43.30;96546.20;1807981;79;21182;-56